Airport View

Enter AWOS ICAO identifier for current METAR.

ex. KFNL

KCPC 191820Z AUTO 26005KT 10SM CLR 31/21 A2983 RMK AO2 T03050210

19 Jun 2019 18:47

Frequency: 118.375

Phone: 910-642-7508

Other Area AWOS: KEYF - KLBT - KCRE - KMAO

KLBT 191720Z 1918/2018 23010G19KT P6SM VCTS BKN045CB FM200000 21006KT P6SM BKN100 FM201000 24009KT P6SM SCT008 FM201200 25010KT P6SM SCT035 AMD NOT SKED